sensor_id;sensor_type;location;lat;lon;timestamp;pressure;altitude;pressure_sealevel;temperature;humidity
28628;BME280;15815;46.760;19.604;2024-02-14T01:15:06;100811.94;;;5.38;74.06
28628;BME280;15815;46.760;19.604;2024-02-14T01:17:31;100829.00;;;5.37;74.11
28628;BME280;15815;46.760;19.604;2024-02-14T01:20:06;100811.66;;;5.27;73.99
28628;BME280;15815;46.760;19.604;2024-02-14T01:22:37;100803.06;;;5.05;74.49
28628;BME280;15815;46.760;19.604;2024-02-14T01:25:03;100821.56;;;4.97;74.43
28628;BME280;15815;46.760;19.604;2024-02-14T01:27:29;100808.13;;;4.87;74.75
28628;BME280;15815;46.760;19.604;2024-02-14T01:29:56;100823.53;;;4.96;73.92
28628;BME280;15815;46.760;19.604;2024-02-14T01:32:22;100826.66;;;4.95;74.37
28628;BME280;15815;46.760;19.604;2024-02-14T01:34:47;100804.94;;;4.73;74.48
28628;BME280;15815;46.760;19.604;2024-02-14T01:37:12;100814.19;;;4.77;74.58
28628;BME280;15815;46.760;19.604;2024-02-14T01:39:38;100803.78;;;4.61;74.93
28628;BME280;15815;46.760;19.604;2024-02-14T01:42:04;100810.75;;;4.68;74.93
28628;BME280;15815;46.760;19.604;2024-02-14T01:44:30;100818.31;;;4.55;75.56
28628;BME280;15815;46.760;19.604;2024-02-14T01:46:56;100818.25;;;4.39;76.05
28628;BME280;15815;46.760;19.604;2024-02-14T01:52:24;100816.84;;;4.33;76.48
28628;BME280;15815;46.760;19.604;2024-02-14T01:54:51;100827.97;;;4.33;76.07
28628;BME280;15815;46.760;19.604;2024-02-14T01:57:18;100822.66;;;4.28;76.65
28628;BME280;15815;46.760;19.604;2024-02-14T01:59:44;100833.31;;;4.26;76.63
28628;BME280;15815;46.760;19.604;2024-02-14T02:02:09;100827.53;;;4.19;76.87
28628;BME280;15815;46.760;19.604;2024-02-14T02:04:39;100825.00;;;4.14;76.91
28628;BME280;15815;46.760;19.604;2024-02-14T02:07:10;100808.28;;;4.01;77.05
28628;BME280;15815;46.760;19.604;2024-02-14T02:09:36;100836.69;;;4.07;77.57
28628;BME280;15815;46.760;19.604;2024-02-14T02:12:03;100811.56;;;3.91;77.83
28628;BME280;15815;46.760;19.604;2024-02-14T02:14:33;100825.81;;;3.90;77.80
28628;BME280;15815;46.760;19.604;2024-02-14T02:16:58;100831.47;;;3.93;78.08
28628;BME280;15815;46.760;19.604;2024-02-14T02:19:36;100832.75;;;3.84;78.47
28628;BME280;15815;46.760;19.604;2024-02-14T02:22:02;100825.66;;;3.74;78.85
28628;BME280;15815;46.760;19.604;2024-02-14T02:24:28;100824.84;;;3.73;78.60
28628;BME280;15815;46.760;19.604;2024-02-14T02:26:53;100828.22;;;3.79;78.10
28628;BME280;15815;46.760;19.604;2024-02-14T02:29:19;100832.84;;;3.75;78.37
28628;BME280;15815;46.760;19.604;2024-02-14T02:31:46;100845.00;;;3.70;78.54
28628;BME280;15815;46.760;19.604;2024-02-14T02:34:12;100809.53;;;3.43;78.66
28628;BME280;15815;46.760;19.604;2024-02-14T02:36:40;100843.38;;;3.57;79.24
28628;BME280;15815;46.760;19.604;2024-02-14T02:39:06;100836.75;;;3.50;78.76
28628;BME280;15815;46.760;19.604;2024-02-14T02:41:41;100839.53;;;3.50;79.19
28628;BME280;15815;46.760;19.604;2024-02-14T02:44:06;100846.47;;;3.44;78.70
28628;BME280;15815;46.760;19.604;2024-02-14T02:46:32;100850.06;;;3.44;78.82
28628;BME280;15815;46.760;19.604;2024-02-14T02:48:58;100851.09;;;3.39;79.04
28628;BME280;15815;46.760;19.604;2024-02-14T02:51:24;100858.97;;;3.37;79.18
28628;BME280;15815;46.760;19.604;2024-02-14T02:53:50;100862.31;;;3.31;79.41
28628;BME280;15815;46.760;19.604;2024-02-14T02:56:39;100860.19;;;3.28;79.84
28628;BME280;15815;46.760;19.604;2024-02-14T02:59:04;100863.75;;;3.16;80.46
28628;BME280;15815;46.760;19.604;2024-02-14T03:01:36;100881.13;;;3.25;79.54
28628;BME280;15815;46.760;19.604;2024-02-14T03:04:12;100880.28;;;3.13;79.84
28628;BME280;15815;46.760;19.604;2024-02-14T03:06:38;100887.19;;;3.06;80.20
28628;BME280;15815;46.760;19.604;2024-02-14T03:09:03;100880.53;;;2.99;80.72
28628;BME280;15815;46.760;19.604;2024-02-14T03:11:35;100889.84;;;3.03;80.38
28628;BME280;15815;46.760;19.604;2024-02-14T03:14:00;100888.41;;;2.97;80.84
28628;BME280;15815;46.760;19.604;2024-02-14T03:16:27;100888.28;;;2.93;80.23
28628;BME280;15815;46.760;19.604;2024-02-14T03:18:52;100889.78;;;2.91;80.88
28628;BME280;15815;46.760;19.604;2024-02-14T03:21:21;100897.38;;;2.82;81.12
28628;BME280;15815;46.760;19.604;2024-02-14T03:23:52;100902.91;;;2.82;81.51
28628;BME280;15815;46.760;19.604;2024-02-14T03:26:18;100907.66;;;2.81;81.46
28628;BME280;15815;46.760;19.604;2024-02-14T03:28:43;100908.22;;;2.74;81.09
28628;BME280;15815;46.760;19.604;2024-02-14T03:31:09;100915.22;;;2.72;80.97
28628;BME280;15815;46.760;19.604;2024-02-14T03:33:34;100922.13;;;2.66;81.19
28628;BME280;15815;46.760;19.604;2024-02-14T03:36:00;100911.09;;;2.57;81.47
28628;BME280;15815;46.760;19.604;2024-02-14T03:38:35;100913.09;;;2.48;81.75
28628;BME280;15815;46.760;19.604;2024-02-14T03:41:01;100916.69;;;2.48;81.13
28628;BME280;15815;46.760;19.604;2024-02-14T03:43:45;100926.94;;;2.57;80.28
28628;BME280;15815;46.760;19.604;2024-02-14T03:46:12;100924.22;;;2.48;80.43
28628;BME280;15815;46.760;19.604;2024-02-14T03:48:37;100933.84;;;2.42;81.11
28628;BME280;15815;46.760;19.604;2024-02-14T03:51:16;100919.91;;;2.30;81.15
28628;BME280;15815;46.760;19.604;2024-02-14T03:53:42;100930.69;;;2.23;82.06
28628;BME280;15815;46.760;19.604;2024-02-14T03:56:07;100934.78;;;2.16;82.32
28628;BME280;15815;46.760;19.604;2024-02-14T03:58:33;100935.25;;;2.18;81.41
28628;BME280;15815;46.760;19.604;2024-02-14T04:00:58;100933.34;;;2.10;81.70
28628;BME280;15815;46.760;19.604;2024-02-14T04:03:24;100944.97;;;2.04;82.40
28628;BME280;15815;46.760;19.604;2024-02-14T04:08:53;100937.66;;;1.91;83.27
28628;BME280;15815;46.760;19.604;2024-02-14T04:11:19;100928.53;;;1.90;81.76
28628;BME280;15815;46.760;19.604;2024-02-14T04:13:46;100946.16;;;1.94;81.67
28628;BME280;15815;46.760;19.604;2024-02-14T04:16:12;100950.69;;;1.90;81.65
28628;BME280;15815;46.760;19.604;2024-02-14T04:18:37;100947.97;;;1.81;82.20
28628;BME280;15815;46.760;19.604;2024-02-14T04:21:03;100943.28;;;1.73;82.78
28628;BME280;15815;46.760;19.604;2024-02-14T04:23:30;100937.09;;;1.68;82.76
28628;BME280;15815;46.760;19.604;2024-02-14T04:25:56;100951.25;;;1.75;83.23
28628;BME280;15815;46.760;19.604;2024-02-14T04:28:21;100953.06;;;1.71;83.47
28628;BME280;15815;46.760;19.604;2024-02-14T04:30:47;100953.72;;;1.68;83.53
28628;BME280;15815;46.760;19.604;2024-02-14T04:33:12;100968.06;;;1.70;83.49
28628;BME280;15815;46.760;19.604;2024-02-14T04:35:40;100971.16;;;1.68;83.60
28628;BME280;15815;46.760;19.604;2024-02-14T04:38:05;100966.09;;;1.62;83.04
28628;BME280;15815;46.760;19.604;2024-02-14T04:40:31;100979.13;;;1.61;83.18
28628;BME280;15815;46.760;19.604;2024-02-14T04:43:03;100973.44;;;1.58;83.01
28628;BME280;15815;46.760;19.604;2024-02-14T04:45:29;100982.09;;;1.56;82.83
28628;BME280;15815;46.760;19.604;2024-02-14T04:47:54;100972.13;;;1.55;83.77
28628;BME280;15815;46.760;19.604;2024-02-14T04:50:23;100989.25;;;1.48;83.14
28628;BME280;15815;46.760;19.604;2024-02-14T04:52:51;100976.06;;;1.45;83.72
28628;BME280;15815;46.760;19.604;2024-02-14T04:55:17;100990.41;;;1.47;83.17
28628;BME280;15815;46.760;19.604;2024-02-14T05:00:34;100989.75;;;1.42;83.51
28628;BME280;15815;46.760;19.604;2024-02-14T05:02:59;100997.72;;;1.35;84.54
28628;BME280;15815;46.760;19.604;2024-02-14T05:05:25;101001.97;;;1.32;83.36
28628;BME280;15815;46.760;19.604;2024-02-14T05:07:50;100994.16;;;1.34;83.98
28628;BME280;15815;46.760;19.604;2024-02-14T05:10:16;101008.19;;;1.38;84.83
28628;BME280;15815;46.760;19.604;2024-02-14T05:12:50;101008.16;;;1.29;84.12
28628;BME280;15815;46.760;19.604;2024-02-14T05:15:15;101007.50;;;1.32;83.42
28628;BME280;15815;46.760;19.604;2024-02-14T05:17:44;101009.13;;;1.33;83.66
28628;BME280;15815;46.760;19.604;2024-02-14T05:20:14;101010.44;;;1.27;84.49
28628;BME280;15815;46.760;19.604;2024-02-14T05:22:40;101017.63;;;1.28;84.53
28628;BME280;15815;46.760;19.604;2024-02-14T05:25:06;101012.41;;;1.18;84.97
28628;BME280;15815;46.760;19.604;2024-02-14T05:27:31;101019.91;;;1.17;84.67
28628;BME280;15815;46.760;19.604;2024-02-14T05:30:05;101025.75;;;1.16;84.63
28628;BME280;15815;46.760;19.604;2024-02-14T05:32:32;101014.50;;;1.04;84.71
28628;BME280;15815;46.760;19.604;2024-02-14T05:34:57;101022.16;;;1.07;84.72
28628;BME280;15815;46.760;19.604;2024-02-14T05:37:24;101024.25;;;1.01;84.57
28628;BME280;15815;46.760;19.604;2024-02-14T05:39:50;101029.47;;;1.03;84.45
28628;BME280;15815;46.760;19.604;2024-02-14T05:42:34;101027.03;;;1.01;85.62
28628;BME280;15815;46.760;19.604;2024-02-14T05:45:00;101035.66;;;1.00;85.61
28628;BME280;15815;46.760;19.604;2024-02-14T05:47:47;101040.38;;;1.08;84.46
28628;BME280;15815;46.760;19.604;2024-02-14T05:50:13;101041.69;;;1.02;84.64
28628;BME280;15815;46.760;19.604;2024-02-14T05:52:38;101052.09;;;1.05;84.27
28628;BME280;15815;46.760;19.604;2024-02-14T05:55:04;101030.94;;;0.91;84.52
28628;BME280;15815;46.760;19.604;2024-02-14T05:57:30;101044.28;;;0.89;83.98
28628;BME280;15815;46.760;19.604;2024-02-14T05:59:55;101061.69;;;0.90;86.00
28628;BME280;15815;46.760;19.604;2024-02-14T06:02:21;101061.88;;;0.93;85.45
28628;BME280;15815;46.760;19.604;2024-02-14T06:04:50;101069.38;;;1.02;85.16
28628;BME280;15815;46.760;19.604;2024-02-14T06:07:26;101067.91;;;1.04;85.65
28628;BME280;15815;46.760;19.604;2024-02-14T06:09:52;101068.44;;;1.15;85.74
28628;BME280;15815;46.760;19.604;2024-02-14T06:12:17;101073.69;;;1.42;85.51
28628;BME280;15815;46.760;19.604;2024-02-14T06:14:43;101067.84;;;1.70;84.88
28628;BME280;15815;46.760;19.604;2024-02-14T06:17:08;101068.44;;;2.01;84.15
28628;BME280;15815;46.760;19.604;2024-02-14T06:19:34;101065.59;;;2.36;83.31
28628;BME280;15815;46.760;19.604;2024-02-14T06:22:00;101077.69;;;2.78;83.04
28628;BME280;15815;46.760;19.604;2024-02-14T06:24:26;101069.09;;;3.21;83.07
28628;BME280;15815;46.760;19.604;2024-02-14T06:26:51;101083.53;;;3.65;83.37
28628;BME280;15815;46.760;19.604;2024-02-14T06:29:17;101087.69;;;4.13;83.44
28628;BME280;15815;46.760;19.604;2024-02-14T06:31:42;101087.56;;;4.54;83.64
28628;BME280;15815;46.760;19.604;2024-02-14T06:34:08;101093.41;;;4.98;83.47
28628;BME280;15815;46.760;19.604;2024-02-14T06:36:33;101094.81;;;5.28;84.15
28628;BME280;15815;46.760;19.604;2024-02-14T06:38:59;101104.16;;;5.61;85.41
28628;BME280;15815;46.760;19.604;2024-02-14T06:41:25;101100.50;;;5.84;86.04
28628;BME280;15815;46.760;19.604;2024-02-14T06:44:12;101107.47;;;6.46;85.64
28628;BME280;15815;46.760;19.604;2024-02-14T06:46:38;101104.56;;;6.87;86.17
28628;BME280;15815;46.760;19.604;2024-02-14T06:49:04;101105.44;;;7.57;84.98
28628;BME280;15815;46.760;19.604;2024-02-14T06:51:29;101101.09;;;8.33;84.85
28628;BME280;15815;46.760;19.604;2024-02-14T06:53:55;101102.56;;;8.92;84.40
28628;BME280;15815;46.760;19.604;2024-02-14T06:56:29;101107.03;;;9.73;83.68
28628;BME280;15815;46.760;19.604;2024-02-14T06:58:55;101106.97;;;10.26;84.39
28628;BME280;15815;46.760;19.604;2024-02-14T07:01:21;101109.75;;;10.63;85.05
28628;BME280;15815;46.760;19.604;2024-02-14T07:03:48;101121.56;;;11.20;83.59
28628;BME280;15815;46.760;19.604;2024-02-14T07:06:14;101115.66;;;11.97;83.03
28628;BME280;15815;46.760;19.604;2024-02-14T07:08:43;101114.75;;;12.73;83.04
28628;BME280;15815;46.760;19.604;2024-02-14T07:11:11;101120.84;;;13.36;81.94
28628;BME280;15815;46.760;19.604;2024-02-14T07:13:37;101131.25;;;13.92;81.88
28628;BME280;15815;46.760;19.604;2024-02-14T07:16:02;101128.31;;;14.31;81.94
28628;BME280;15815;46.760;19.604;2024-02-14T07:18:35;101135.13;;;14.41;82.55
28628;BME280;15815;46.760;19.604;2024-02-14T07:21:00;101115.91;;;14.88;79.71
28628;BME280;15815;46.760;19.604;2024-02-14T07:23:26;101101.28;;;15.44;83.83
28628;BME280;15815;46.760;19.604;2024-02-14T07:26:08;101141.97;;;16.06;77.10
28628;BME280;15815;46.760;19.604;2024-02-14T07:28:33;101125.44;;;16.31;78.15
28628;BME280;15815;46.760;19.604;2024-02-14T07:31:00;101137.50;;;17.00;81.40
28628;BME280;15815;46.760;19.604;2024-02-14T07:38:33;101113.84;;;17.57;72.75
28628;BME280;15815;46.760;19.604;2024-02-14T07:41:09;101118.81;;;18.36;71.64
28628;BME280;15815;46.760;19.604;2024-02-14T07:43:35;101131.06;;;18.52;77.19
28628;BME280;15815;46.760;19.604;2024-02-14T07:46:00;101137.63;;;18.30;75.01
28628;BME280;15815;46.760;19.604;2024-02-14T07:48:26;101144.06;;;18.34;78.95
28628;BME280;15815;46.760;19.604;2024-02-14T07:51:19;101160.31;;;19.09;70.46
28628;BME280;15815;46.760;19.604;2024-02-14T07:53:46;101159.78;;;18.98;76.60
28628;BME280;15815;46.760;19.604;2024-02-14T07:56:15;101116.69;;;19.44;72.77
28628;BME280;15815;46.760;19.604;2024-02-14T07:58:44;101145.31;;;19.57;74.67
28628;BME280;15815;46.760;19.604;2024-02-14T08:01:17;101120.28;;;20.23;72.94
28628;BME280;15815;46.760;19.604;2024-02-14T08:09:58;101153.25;;;21.33;64.81
28628;BME280;15815;46.760;19.604;2024-02-14T08:15:05;101157.00;;;21.55;64.75
28628;BME280;15815;46.760;19.604;2024-02-14T08:17:31;101123.13;;;21.66;68.78
28628;BME280;15815;46.760;19.604;2024-02-14T08:22:35;101122.88;;;22.30;68.28
28628;BME280;15815;46.760;19.604;2024-02-14T08:25:01;101120.44;;;22.72;65.52
28628;BME280;15815;46.760;19.604;2024-02-14T08:27:30;101125.59;;;23.08;63.81
28628;BME280;15815;46.760;19.604;2024-02-14T08:30:04;101161.72;;;23.05;57.48
28628;BME280;15815;46.760;19.604;2024-02-14T08:32:31;101123.28;;;22.41;47.34
28628;BME280;15815;46.760;19.604;2024-02-14T08:35:03;101131.81;;;23.16;54.75
28628;BME280;15815;46.760;19.604;2024-02-14T08:37:48;101160.41;;;23.87;51.30
28628;BME280;15815;46.760;19.604;2024-02-14T08:42:49;101138.22;;;23.96;51.01
28628;BME280;15815;46.760;19.604;2024-02-14T08:45:23;101130.88;;;23.95;51.58
28628;BME280;15815;46.760;19.604;2024-02-14T08:47:53;101173.47;;;24.70;53.61
28628;BME280;15815;46.760;19.604;2024-02-14T08:50:29;101147.16;;;23.89;40.51
28628;BME280;15815;46.760;19.604;2024-02-14T08:52:58;101138.19;;;24.70;46.95
28628;BME280;15815;46.760;19.604;2024-02-14T08:55:24;101173.56;;;24.94;44.73
28628;BME280;15815;46.760;19.604;2024-02-14T08:58:03;101160.66;;;24.99;45.15
28628;BME280;15815;46.760;19.604;2024-02-14T09:00:33;101147.16;;;25.14;44.29
28628;BME280;15815;46.760;19.604;2024-02-14T09:02:59;101170.47;;;25.82;42.83
28628;BME280;15815;46.760;19.604;2024-02-14T09:05:24;101162.22;;;25.66;41.77
28628;BME280;15815;46.760;19.604;2024-02-14T09:07:50;101168.72;;;25.51;34.92
28628;BME280;15815;46.760;19.604;2024-02-14T09:10:15;101159.00;;;25.40;36.97
28628;BME280;15815;46.760;19.604;2024-02-14T09:12:47;101133.72;;;24.69;33.86
28628;BME280;15815;46.760;19.604;2024-02-14T09:15:13;101166.47;;;25.13;31.96
28628;BME280;15815;46.760;19.604;2024-02-14T09:17:39;101139.91;;;25.27;36.48
28628;BME280;15815;46.760;19.604;2024-02-14T09:20:09;101158.59;;;25.56;30.04
28628;BME280;15815;46.760;19.604;2024-02-14T09:22:54;101144.13;;;25.08;37.11
28628;BME280;15815;46.760;19.604;2024-02-14T09:25:25;101143.47;;;24.53;27.86
28628;BME280;15815;46.760;19.604;2024-02-14T09:27:51;101143.66;;;24.49;24.97
28628;BME280;15815;46.760;19.604;2024-02-14T09:30:28;101144.44;;;23.86;25.75
28628;BME280;15815;46.760;19.604;2024-02-14T09:32:54;101143.19;;;24.14;30.06
28628;BME280;15815;46.760;19.604;2024-02-14T09:35:26;101148.75;;;24.36;33.69
28628;BME280;15815;46.760;19.604;2024-02-14T09:37:55;101138.56;;;24.95;30.56
28628;BME280;15815;46.760;19.604;2024-02-14T09:57:59;101148.78;;;25.06;29.43
28628;BME280;15815;46.760;19.604;2024-02-14T10:00:27;101166.16;;;25.20;26.77
28628;BME280;15815;46.760;19.604;2024-02-14T10:02:53;101159.94;;;25.79;25.81
28628;BME280;15815;46.760;19.604;2024-02-14T10:05:19;101162.75;;;25.88;25.40
28628;BME280;15815;46.760;19.604;2024-02-14T10:07:44;101168.22;;;25.53;23.81
28628;BME280;15815;46.760;19.604;2024-02-14T10:10:10;101162.19;;;25.75;28.50
28628;BME280;15815;46.760;19.604;2024-02-14T10:12:36;101147.63;;;25.45;25.86
28628;BME280;15815;46.760;19.604;2024-02-14T10:15:02;101153.28;;;25.64;32.75
28628;BME280;15815;46.760;19.604;2024-02-14T10:17:27;101159.69;;;25.92;26.77
28628;BME280;15815;46.760;19.604;2024-02-14T10:19:57;101148.38;;;25.55;26.03
28628;BME280;15815;46.760;19.604;2024-02-14T10:22:23;101154.75;;;25.59;26.14
28628;BME280;15815;46.760;19.604;2024-02-14T10:24:49;101139.69;;;25.88;28.46
28628;BME280;15815;46.760;19.604;2024-02-14T10:27:15;101146.47;;;26.00;27.00
28628;BME280;15815;46.760;19.604;2024-02-14T10:29:41;101147.44;;;25.82;29.24
28628;BME280;15815;46.760;19.604;2024-02-14T10:32:06;101140.78;;;26.14;27.39
28628;BME280;15815;46.760;19.604;2024-02-14T10:34:33;101127.16;;;24.68;24.33
28628;BME280;15815;46.760;19.604;2024-02-14T10:37:00;101135.19;;;24.46;28.64
28628;BME280;15815;46.760;19.604;2024-02-14T10:39:26;101130.91;;;25.35;26.49
28628;BME280;15815;46.760;19.604;2024-02-14T10:41:54;101121.88;;;25.18;30.14
28628;BME280;15815;46.760;19.604;2024-02-14T10:44:20;101130.56;;;25.90;27.08
28628;BME280;15815;46.760;19.604;2024-02-14T10:46:46;101105.75;;;25.92;26.21
28628;BME280;15815;46.760;19.604;2024-02-14T10:49:14;101105.47;;;26.58;24.99
28628;BME280;15815;46.760;19.604;2024-02-14T10:51:42;101126.88;;;26.28;23.16
28628;BME280;15815;46.760;19.604;2024-02-14T10:54:12;101118.13;;;25.60;24.76
28628;BME280;15815;46.760;19.604;2024-02-14T10:56:41;101121.09;;;25.41;26.65
28628;BME280;15815;46.760;19.604;2024-02-14T10:59:08;101114.69;;;25.94;28.63
28628;BME280;15815;46.760;19.604;2024-02-14T11:01:35;101113.41;;;26.34;25.27
28628;BME280;15815;46.760;19.604;2024-02-14T11:04:02;101132.81;;;26.24;27.67
28628;BME280;15815;46.760;19.604;2024-02-14T11:06:28;101129.16;;;25.85;24.13
28628;BME280;15815;46.760;19.604;2024-02-14T11:09:01;101116.31;;;25.71;26.53
28628;BME280;15815;46.760;19.604;2024-02-14T11:11:30;101113.56;;;25.77;26.81
28628;BME280;15815;46.760;19.604;2024-02-14T11:13:57;101094.53;;;26.62;26.85
28628;BME280;15815;46.760;19.604;2024-02-14T11:16:25;101095.06;;;26.07;26.88
28628;BME280;15815;46.760;19.604;2024-02-14T11:18:51;101099.50;;;26.62;29.07
28628;BME280;15815;46.760;19.604;2024-02-14T11:21:17;101085.94;;;26.24;25.73
28628;BME280;15815;46.760;19.604;2024-02-14T11:23:52;101095.22;;;25.89;25.11
28628;BME280;15815;46.760;19.604;2024-02-14T11:26:19;101094.41;;;25.88;27.14
28628;BME280;15815;46.760;19.604;2024-02-14T11:28:45;101099.84;;;26.10;27.21
28628;BME280;15815;46.760;19.604;2024-02-14T11:31:10;101085.97;;;25.37;23.43
28628;BME280;15815;46.760;19.604;2024-02-14T11:33:38;101089.41;;;25.74;25.40
28628;BME280;15815;46.760;19.604;2024-02-14T11:36:08;101089.41;;;25.50;25.51
28628;BME280;15815;46.760;19.604;2024-02-14T11:38:33;101077.13;;;25.88;27.75
28628;BME280;15815;46.760;19.604;2024-02-14T11:41:06;101086.28;;;25.87;25.86
28628;BME280;15815;46.760;19.604;2024-02-14T11:43:32;101085.06;;;25.79;24.34
28628;BME280;15815;46.760;19.604;2024-02-14T11:45:58;101063.44;;;25.36;27.76
28628;BME280;15815;46.760;19.604;2024-02-14T11:48:23;101077.25;;;25.46;27.71
28628;BME280;15815;46.760;19.604;2024-02-14T11:50:53;101079.47;;;25.27;24.96
28628;BME280;15815;46.760;19.604;2024-02-14T11:53:19;101079.28;;;25.31;26.29
28628;BME280;15815;46.760;19.604;2024-02-14T11:55:46;101089.03;;;25.34;27.17
28628;BME280;15815;46.760;19.604;2024-02-14T11:58:17;101074.75;;;25.39;26.21
28628;BME280;15815;46.760;19.604;2024-02-14T12:00:44;101071.72;;;25.67;26.29
28628;BME280;15815;46.760;19.604;2024-02-14T12:03:31;101072.38;;;25.38;25.88
28628;BME280;15815;46.760;19.604;2024-02-14T12:05:57;101071.06;;;25.15;26.48
28628;BME280;15815;46.760;19.604;2024-02-14T12:08:23;101054.28;;;24.20;26.14
28628;BME280;15815;46.760;19.604;2024-02-14T12:10:49;101079.03;;;23.62;26.34
28628;BME280;15815;46.760;19.604;2024-02-14T12:13:17;101074.66;;;22.50;27.01
28628;BME280;15815;46.760;19.604;2024-02-14T12:15:46;101075.56;;;21.81;27.89
28628;BME280;15815;46.760;19.604;2024-02-14T12:18:14;101084.84;;;22.29;27.79
28628;BME280;15815;46.760;19.604;2024-02-14T12:20:41;101079.09;;;22.20;27.75
28628;BME280;15815;46.760;19.604;2024-02-14T12:23:06;101053.28;;;21.42;27.96
28628;BME280;15815;46.760;19.604;2024-02-14T12:25:35;101064.78;;;21.85;27.35
28628;BME280;15815;46.760;19.604;2024-02-14T12:28:04;101056.97;;;21.29;28.22
28628;BME280;15815;46.760;19.604;2024-02-14T12:31:02;101062.06;;;21.47;29.25
28628;BME280;15815;46.760;19.604;2024-02-14T12:33:28;101043.72;;;21.10;28.73
28628;BME280;15815;46.760;19.604;2024-02-14T12:35:57;101048.56;;;20.62;29.44
28628;BME280;15815;46.760;19.604;2024-02-14T12:38:22;101053.91;;;20.60;28.81
28628;BME280;15815;46.760;19.604;2024-02-14T12:40:49;101051.69;;;20.39;30.62
28628;BME280;15815;46.760;19.604;2024-02-14T12:43:15;101029.28;;;20.12;31.31
28628;BME280;15815;46.760;19.604;2024-02-14T12:45:42;101056.56;;;20.13;31.96
28628;BME280;15815;46.760;19.604;2024-02-14T12:48:23;101052.16;;;19.96;30.00
28628;BME280;15815;46.760;19.604;2024-02-14T12:50:49;101053.28;;;19.57;30.87
28628;BME280;15815;46.760;19.604;2024-02-14T12:53:15;101060.06;;;19.14;31.82
28628;BME280;15815;46.760;19.604;2024-02-14T12:55:40;101062.72;;;19.05;33.06
28628;BME280;15815;46.760;19.604;2024-02-14T12:58:06;101053.31;;;18.92;31.42
28628;BME280;15815;46.760;19.604;2024-02-14T13:00:32;101047.59;;;18.75;31.73
28628;BME280;15815;46.760;19.604;2024-02-14T13:02:59;101052.22;;;18.13;32.61
28628;BME280;15815;46.760;19.604;2024-02-14T13:05:25;101050.09;;;18.37;33.28
28628;BME280;15815;46.760;19.604;2024-02-14T13:07:50;101049.38;;;18.13;32.77
28628;BME280;15815;46.760;19.604;2024-02-14T13:10:16;101068.47;;;17.93;33.21
28628;BME280;15815;46.760;19.604;2024-02-14T13:12:42;101048.09;;;17.55;34.61
28628;BME280;15815;46.760;19.604;2024-02-14T13:15:07;101051.91;;;17.68;34.36
28628;BME280;15815;46.760;19.604;2024-02-14T13:17:33;101063.84;;;17.36;33.71
28628;BME280;15815;46.760;19.604;2024-02-14T13:19:59;101068.66;;;16.92;33.69
28628;BME280;15815;46.760;19.604;2024-02-14T13:22:24;101064.41;;;17.04;35.36
28628;BME280;15815;46.760;19.604;2024-02-14T13:24:50;101050.53;;;16.56;36.20
28628;BME280;15815;46.760;19.604;2024-02-14T13:27:15;101047.47;;;16.43;36.22
28628;BME280;15815;46.760;19.604;2024-02-14T13:29:41;101034.69;;;16.58;36.58
28628;BME280;15815;46.760;19.604;2024-02-14T13:32:15;101038.69;;;16.61;36.25
28628;BME280;15815;46.760;19.604;2024-02-14T13:34:41;101045.34;;;16.51;36.89
28628;BME280;15815;46.760;19.604;2024-02-14T13:37:07;101034.78;;;16.24;36.24
28628;BME280;15815;46.760;19.604;2024-02-14T13:39:32;101044.53;;;16.23;36.29
28628;BME280;15815;46.760;19.604;2024-02-14T13:42:03;101051.78;;;15.94;38.68
28628;BME280;15815;46.760;19.604;2024-02-14T13:44:29;101048.81;;;15.70;38.72
28628;BME280;15815;46.760;19.604;2024-02-14T13:46:54;101052.03;;;15.72;39.79
28628;BME280;15815;46.760;19.604;2024-02-14T13:49:20;101026.63;;;15.65;39.24
28628;BME280;15815;46.760;19.604;2024-02-14T13:51:45;101035.97;;;15.62;39.45
28628;BME280;15815;46.760;19.604;2024-02-14T13:54:11;101036.16;;;15.79;38.32
28628;BME280;15815;46.760;19.604;2024-02-14T13:56:36;101035.69;;;15.46;38.80
28628;BME280;15815;46.760;19.604;2024-02-14T13:59:02;101024.41;;;14.98;40.21
28628;BME280;15815;46.760;19.604;2024-02-14T14:01:28;101021.66;;;14.91;39.92
28628;BME280;15815;46.760;19.604;2024-02-14T14:03:53;101019.97;;;14.97;40.10
28628;BME280;15815;46.760;19.604;2024-02-14T14:06:19;101028.31;;;15.14;40.16
28628;BME280;15815;46.760;19.604;2024-02-14T14:08:44;101023.22;;;14.95;40.75
28628;BME280;15815;46.760;19.604;2024-02-14T14:11:12;101032.63;;;14.85;41.04
28628;BME280;15815;46.760;19.604;2024-02-14T14:13:38;101039.44;;;14.91;41.95
28628;BME280;15815;46.760;19.604;2024-02-14T14:16:03;101031.47;;;14.75;40.76
28628;BME280;15815;46.760;19.604;2024-02-14T14:18:29;101041.78;;;14.41;41.22
28628;BME280;15815;46.760;19.604;2024-02-14T14:20:54;101031.75;;;14.29;40.42
28628;BME280;15815;46.760;19.604;2024-02-14T14:23:20;101043.78;;;14.47;40.13
28628;BME280;15815;46.760;19.604;2024-02-14T14:25:45;101042.97;;;14.47;41.07
28628;BME280;15815;46.760;19.604;2024-02-14T14:28:11;101047.06;;;14.35;41.98
28628;BME280;15815;46.760;19.604;2024-02-14T14:30:40;101045.66;;;13.99;41.63
28628;BME280;15815;46.760;19.604;2024-02-14T14:33:06;101012.56;;;13.88;43.03
28628;BME280;15815;46.760;19.604;2024-02-14T14:35:37;101013.88;;;13.73;40.30
28628;BME280;15815;46.760;19.604;2024-02-14T14:38:03;101042.03;;;13.98;41.67
28628;BME280;15815;46.760;19.604;2024-02-14T14:40:30;101027.50;;;13.92;42.53
28628;BME280;15815;46.760;19.604;2024-02-14T14:42:55;101048.13;;;13.82;42.62
28628;BME280;15815;46.760;19.604;2024-02-14T14:45:21;101026.44;;;13.54;42.37
28628;BME280;15815;46.760;19.604;2024-02-14T14:47:48;101035.31;;;13.53;43.38